Wilson, KS (67490)

4:59 PM CST on February 13, 2016 (GMT -0600)
Wilson | | Change Station
CLOSE
Current Station
Personal Weather Station
Location: Wilson, KS
Elevation: 1689 ft
Nearby Weather Stations

Elev 1689 ft 38.82 °N, 98.47 °W | Updated 4 minutes ago

Overcast
Overcast
36.1 °F
Feels Like 29 °F
N
8.7
Wind Variable Wind from ESE
Gusts 9.9 mph

Today
High -- | Low -- °F
--% Chance of Precip.
Yesterday
High -- | Low -- °F
Precip. -- in
Pressure 30.18 in
Visibility 10.0 miles
Clouds Clear
Windchill 29 °F
Dew Point Not available.
Humidity Not available.
Rainfall 0.00 in
Snow Depth Not available.
7:27 AM 6:08 PM
Waxing Crescent, 35% visible
METAR KRSL 132253Z AUTO 13010KT 10SM CLR 02/M08 A3012 RMK AO2 SLP220 T00171083
Pressure 30.18 in
Visibility 10.0 miles
Clouds Clear
Windchill 29 °F
Dew Point Not available.
Humidity Not available.
Rainfall 0.00 in
Snow Depth Not available.
7:27 AM 6:08 PM
Waxing Crescent, 35% visible
METAR KRSL 132253Z AUTO 13010KT 10SM CLR 02/M08 A3012 RMK AO2 SLP220 T00171083

10-Day Weather Forecast

Almanac

Astronomy

Feb. 13, 2016 Rise Set
Actual Time
Civil Twilight
Nautical Twilight
Astronomical Twilight
Moon
Length of Visible Light
Length of Day
Tomorrow will be .
, % of the Moon is Illuminated

Today's Extremes

State Highs State Lows

Community

WunderPhotos

Upload Photos

1,892,689 photos uploaded!

WunderBlog® & News

Nearby

Air Quality

  Air Quality AQ Index Pollutant
Not available.

Snow Depth

Station Depth Elevation

Earthquake Activity

City Distance Mag. Time & Date
Minimum magnitude displayed is 2.5.

Coastal Water Temperatures

Place Temperature

Stations

Nearby Weather Stations

Station Location Temp. Windchill Dew Point Humidity Wind Precip. Elev Updated Type
                   

Watches & Warnings

There are currently no watches in effect.